sensor_id;sensor_type;location;lat;lon;timestamp;P1;durP1;ratioP1;P2;durP2;ratioP2
40945;SDS011;55635;50.264;11.918;2024-03-22T00:01:09;15.40;;;8.02;;
40945;SDS011;55635;50.264;11.918;2024-03-22T00:03:50;9.52;;;6.55;;
40945;SDS011;55635;50.264;11.918;2024-03-22T00:06:32;14.73;;;8.02;;
40945;SDS011;55635;50.264;11.918;2024-03-22T00:09:13;14.00;;;7.65;;
40945;SDS011;55635;50.264;11.918;2024-03-22T00:11:55;10.25;;;7.68;;
40945;SDS011;55635;50.264;11.918;2024-03-22T00:14:36;10.70;;;7.35;;
40945;SDS011;55635;50.264;11.918;2024-03-22T00:17:17;12.45;;;7.88;;
40945;SDS011;55635;50.264;11.918;2024-03-22T00:20:00;12.25;;;8.98;;
40945;SDS011;55635;50.264;11.918;2024-03-22T00:22:41;13.13;;;8.38;;
40945;SDS011;55635;50.264;11.918;2024-03-22T00:25:22;13.05;;;7.78;;
40945;SDS011;55635;50.264;11.918;2024-03-22T00:28:03;14.50;;;8.27;;
40945;SDS011;55635;50.264;11.918;2024-03-22T00:30:44;15.43;;;8.63;;
40945;SDS011;55635;50.264;11.918;2024-03-22T00:33:26;17.15;;;8.63;;
40945;SDS011;55635;50.264;11.918;2024-03-22T00:36:07;13.82;;;8.00;;
40945;SDS011;55635;50.264;11.918;2024-03-22T00:38:49;15.57;;;8.55;;
40945;SDS011;55635;50.264;11.918;2024-03-22T00:41:30;12.82;;;8.07;;
40945;SDS011;55635;50.264;11.918;2024-03-22T00:44:11;13.48;;;8.50;;
40945;SDS011;55635;50.264;11.918;2024-03-22T00:46:53;11.43;;;7.78;;
40945;SDS011;55635;50.264;11.918;2024-03-22T00:49:34;11.23;;;7.80;;
40945;SDS011;55635;50.264;11.918;2024-03-22T00:52:15;9.32;;;6.85;;
40945;SDS011;55635;50.264;11.918;2024-03-22T00:54:56;14.05;;;7.78;;
40945;SDS011;55635;50.264;11.918;2024-03-22T00:57:38;14.10;;;7.43;;
40945;SDS011;55635;50.264;11.918;2024-03-22T01:00:19;13.38;;;7.70;;
40945;SDS011;55635;50.264;11.918;2024-03-22T01:03:00;13.80;;;8.13;;
40945;SDS011;55635;50.264;11.918;2024-03-22T01:05:42;11.02;;;7.40;;
40945;SDS011;55635;50.264;11.918;2024-03-22T01:08:24;9.73;;;7.45;;
40945;SDS011;55635;50.264;11.918;2024-03-22T01:11:05;11.15;;;7.22;;
40945;SDS011;55635;50.264;11.918;2024-03-22T01:13:47;12.18;;;7.03;;
40945;SDS011;55635;50.264;11.918;2024-03-22T01:16:29;17.15;;;8.82;;
40945;SDS011;55635;50.264;11.918;2024-03-22T01:19:10;10.45;;;6.97;;
40945;SDS011;55635;50.264;11.918;2024-03-22T01:21:51;14.93;;;8.02;;
40945;SDS011;55635;50.264;11.918;2024-03-22T01:24:32;10.73;;;7.63;;
40945;SDS011;55635;50.264;11.918;2024-03-22T01:27:14;10.32;;;7.32;;
40945;SDS011;55635;50.264;11.918;2024-03-22T01:29:55;10.25;;;6.85;;
40945;SDS011;55635;50.264;11.918;2024-03-22T01:32:36;13.30;;;8.15;;
40945;SDS011;55635;50.264;11.918;2024-03-22T01:35:18;14.88;;;8.45;;
40945;SDS011;55635;50.264;11.918;2024-03-22T01:37:59;17.45;;;8.73;;
40945;SDS011;55635;50.264;11.918;2024-03-22T01:40:40;15.93;;;7.95;;
40945;SDS011;55635;50.264;11.918;2024-03-22T01:43:21;22.60;;;10.43;;
40945;SDS011;55635;50.264;11.918;2024-03-22T01:46:03;18.13;;;9.43;;
40945;SDS011;55635;50.264;11.918;2024-03-22T01:48:48;19.40;;;10.00;;
40945;SDS011;55635;50.264;11.918;2024-03-22T01:51:29;17.63;;;9.20;;
40945;SDS011;55635;50.264;11.918;2024-03-22T01:54:10;14.60;;;8.93;;
40945;SDS011;55635;50.264;11.918;2024-03-22T01:56:52;16.45;;;9.32;;
40945;SDS011;55635;50.264;11.918;2024-03-22T01:59:33;13.63;;;8.57;;
40945;SDS011;55635;50.264;11.918;2024-03-22T02:02:15;11.85;;;7.60;;
40945;SDS011;55635;50.264;11.918;2024-03-22T02:04:57;14.88;;;8.50;;
40945;SDS011;55635;50.264;11.918;2024-03-22T02:07:38;23.27;;;9.23;;
40945;SDS011;55635;50.264;11.918;2024-03-22T02:10:19;15.88;;;8.57;;
40945;SDS011;55635;50.264;11.918;2024-03-22T02:13:01;64.32;;;10.93;;
40945;SDS011;55635;50.264;11.918;2024-03-22T02:15:42;32.15;;;9.80;;
40945;SDS011;55635;50.264;11.918;2024-03-22T02:18:23;15.73;;;8.45;;
40945;SDS011;55635;50.264;11.918;2024-03-22T02:21:05;70.88;;;13.07;;
40945;SDS011;55635;50.264;11.918;2024-03-22T02:23:46;232.32;;;20.92;;
40945;SDS011;55635;50.264;11.918;2024-03-22T02:26:28;202.80;;;19.08;;
40945;SDS011;55635;50.264;11.918;2024-03-22T02:29:09;234.48;;;18.08;;
40945;SDS011;55635;50.264;11.918;2024-03-22T02:31:50;152.50;;;16.38;;
40945;SDS011;55635;50.264;11.918;2024-03-22T02:34:31;25.48;;;8.00;;
40945;SDS011;55635;50.264;11.918;2024-03-22T02:37:12;60.30;;;10.48;;
40945;SDS011;55635;50.264;11.918;2024-03-22T02:39:53;35.88;;;8.20;;
40945;SDS011;55635;50.264;11.918;2024-03-22T02:42:34;10.38;;;6.80;;
40945;SDS011;55635;50.264;11.918;2024-03-22T02:45:15;11.13;;;7.20;;
40945;SDS011;55635;50.264;11.918;2024-03-22T02:47:57;11.73;;;6.93;;
40945;SDS011;55635;50.264;11.918;2024-03-22T02:50:38;13.65;;;7.47;;
40945;SDS011;55635;50.264;11.918;2024-03-22T02:53:19;12.02;;;7.30;;
40945;SDS011;55635;50.264;11.918;2024-03-22T02:56:00;10.70;;;6.68;;
40945;SDS011;55635;50.264;11.918;2024-03-22T02:58:41;10.70;;;7.10;;
40945;SDS011;55635;50.264;11.918;2024-03-22T03:01:23;11.18;;;6.72;;
40945;SDS011;55635;50.264;11.918;2024-03-22T03:04:04;10.65;;;7.00;;
40945;SDS011;55635;50.264;11.918;2024-03-22T03:06:45;9.93;;;6.47;;
40945;SDS011;55635;50.264;11.918;2024-03-22T03:09:26;11.85;;;6.80;;
40945;SDS011;55635;50.264;11.918;2024-03-22T03:12:07;8.48;;;6.53;;
40945;SDS011;55635;50.264;11.918;2024-03-22T03:14:47;8.80;;;6.28;;
40945;SDS011;55635;50.264;11.918;2024-03-22T03:17:29;14.70;;;6.78;;
40945;SDS011;55635;50.264;11.918;2024-03-22T03:20:10;12.82;;;7.15;;
40945;SDS011;55635;50.264;11.918;2024-03-22T03:22:53;12.93;;;7.82;;
40945;SDS011;55635;50.264;11.918;2024-03-22T03:25:35;11.10;;;6.80;;
40945;SDS011;55635;50.264;11.918;2024-03-22T03:28:16;10.45;;;6.85;;
40945;SDS011;55635;50.264;11.918;2024-03-22T03:30:58;12.40;;;7.22;;
40945;SDS011;55635;50.264;11.918;2024-03-22T03:33:39;11.13;;;7.13;;
40945;SDS011;55635;50.264;11.918;2024-03-22T03:36:20;10.63;;;7.68;;
40945;SDS011;55635;50.264;11.918;2024-03-22T03:39:01;11.88;;;7.43;;
40945;SDS011;55635;50.264;11.918;2024-03-22T03:41:44;12.43;;;7.57;;
40945;SDS011;55635;50.264;11.918;2024-03-22T03:44:25;13.00;;;7.95;;
40945;SDS011;55635;50.264;11.918;2024-03-22T03:47:06;13.95;;;7.95;;
40945;SDS011;55635;50.264;11.918;2024-03-22T03:49:47;14.23;;;8.27;;
40945;SDS011;55635;50.264;11.918;2024-03-22T03:52:28;16.70;;;8.48;;
40945;SDS011;55635;50.264;11.918;2024-03-22T03:55:09;13.68;;;8.43;;
40945;SDS011;55635;50.264;11.918;2024-03-22T03:57:50;14.38;;;7.45;;
40945;SDS011;55635;50.264;11.918;2024-03-22T04:00:32;13.05;;;8.02;;
40945;SDS011;55635;50.264;11.918;2024-03-22T04:03:13;13.48;;;8.23;;
40945;SDS011;55635;50.264;11.918;2024-03-22T04:05:57;15.68;;;8.68;;
40945;SDS011;55635;50.264;11.918;2024-03-22T04:08:38;12.80;;;8.30;;
40945;SDS011;55635;50.264;11.918;2024-03-22T04:11:19;12.52;;;8.57;;
40945;SDS011;55635;50.264;11.918;2024-03-22T04:14:00;12.45;;;7.95;;
40945;SDS011;55635;50.264;11.918;2024-03-22T04:16:42;15.05;;;8.30;;
40945;SDS011;55635;50.264;11.918;2024-03-22T04:19:22;17.85;;;8.63;;
40945;SDS011;55635;50.264;11.918;2024-03-22T04:22:04;11.80;;;8.00;;
40945;SDS011;55635;50.264;11.918;2024-03-22T04:24:45;16.92;;;7.68;;
40945;SDS011;55635;50.264;11.918;2024-03-22T04:27:26;16.23;;;8.75;;
40945;SDS011;55635;50.264;11.918;2024-03-22T04:30:07;11.70;;;8.20;;
40945;SDS011;55635;50.264;11.918;2024-03-22T04:32:50;19.65;;;9.13;;
40945;SDS011;55635;50.264;11.918;2024-03-22T04:35:31;13.05;;;8.27;;
40945;SDS011;55635;50.264;11.918;2024-03-22T04:38:12;14.35;;;8.68;;
40945;SDS011;55635;50.264;11.918;2024-03-22T04:40:53;13.43;;;8.70;;
40945;SDS011;55635;50.264;11.918;2024-03-22T04:43:35;15.23;;;9.27;;
40945;SDS011;55635;50.264;11.918;2024-03-22T04:46:16;15.55;;;8.70;;
40945;SDS011;55635;50.264;11.918;2024-03-22T04:48:57;15.68;;;9.45;;
40945;SDS011;55635;50.264;11.918;2024-03-22T04:51:38;15.65;;;9.43;;
40945;SDS011;55635;50.264;11.918;2024-03-22T04:54:19;19.08;;;10.13;;
40945;SDS011;55635;50.264;11.918;2024-03-22T04:56:59;16.83;;;10.88;;
40945;SDS011;55635;50.264;11.918;2024-03-22T04:59:41;18.88;;;10.13;;
40945;SDS011;55635;50.264;11.918;2024-03-22T05:02:22;19.00;;;10.60;;
40945;SDS011;55635;50.264;11.918;2024-03-22T05:05:03;22.65;;;12.30;;
40945;SDS011;55635;50.264;11.918;2024-03-22T05:07:44;17.77;;;11.27;;
40945;SDS011;55635;50.264;11.918;2024-03-22T05:10:25;20.33;;;11.07;;
40945;SDS011;55635;50.264;11.918;2024-03-22T05:13:08;18.17;;;10.10;;
40945;SDS011;55635;50.264;11.918;2024-03-22T05:15:49;22.35;;;11.25;;
40945;SDS011;55635;50.264;11.918;2024-03-22T05:18:30;20.70;;;11.90;;
40945;SDS011;55635;50.264;11.918;2024-03-22T05:21:11;24.08;;;11.85;;
40945;SDS011;55635;50.264;11.918;2024-03-22T05:23:52;24.85;;;11.90;;
40945;SDS011;55635;50.264;11.918;2024-03-22T05:26:34;22.95;;;12.65;;
40945;SDS011;55635;50.264;11.918;2024-03-22T05:29:16;24.38;;;12.82;;
40945;SDS011;55635;50.264;11.918;2024-03-22T05:31:57;21.90;;;12.52;;
40945;SDS011;55635;50.264;11.918;2024-03-22T05:34:38;21.83;;;11.27;;
40945;SDS011;55635;50.264;11.918;2024-03-22T05:37:20;24.30;;;11.93;;
40945;SDS011;55635;50.264;11.918;2024-03-22T05:40:02;18.55;;;10.88;;
40945;SDS011;55635;50.264;11.918;2024-03-22T05:42:46;25.85;;;13.07;;
40945;SDS011;55635;50.264;11.918;2024-03-22T05:45:28;25.10;;;12.65;;
40945;SDS011;55635;50.264;11.918;2024-03-22T05:48:08;24.38;;;12.25;;
40945;SDS011;55635;50.264;11.918;2024-03-22T05:50:50;22.17;;;12.05;;
40945;SDS011;55635;50.264;11.918;2024-03-22T05:53:31;21.20;;;12.95;;
40945;SDS011;55635;50.264;11.918;2024-03-22T05:56:12;22.60;;;11.73;;
40945;SDS011;55635;50.264;11.918;2024-03-22T05:58:54;23.48;;;12.63;;
40945;SDS011;55635;50.264;11.918;2024-03-22T06:01:35;19.35;;;11.90;;
40945;SDS011;55635;50.264;11.918;2024-03-22T06:04:16;18.48;;;11.25;;
40945;SDS011;55635;50.264;11.918;2024-03-22T06:06:57;22.85;;;12.93;;
40945;SDS011;55635;50.264;11.918;2024-03-22T06:09:40;26.42;;;12.68;;
40945;SDS011;55635;50.264;11.918;2024-03-22T06:12:27;22.02;;;12.63;;
40945;SDS011;55635;50.264;11.918;2024-03-22T06:15:08;21.38;;;13.23;;
40945;SDS011;55635;50.264;11.918;2024-03-22T06:17:49;23.00;;;13.13;;
40945;SDS011;55635;50.264;11.918;2024-03-22T06:20:31;26.05;;;13.57;;
40945;SDS011;55635;50.264;11.918;2024-03-22T06:23:12;29.00;;;15.20;;
40945;SDS011;55635;50.264;11.918;2024-03-22T06:25:53;30.80;;;14.65;;
40945;SDS011;55635;50.264;11.918;2024-03-22T06:28:35;31.60;;;14.10;;
40945;SDS011;55635;50.264;11.918;2024-03-22T06:31:16;33.35;;;15.77;;
40945;SDS011;55635;50.264;11.918;2024-03-22T06:33:58;30.33;;;15.82;;
40945;SDS011;55635;50.264;11.918;2024-03-22T06:36:42;35.78;;;16.17;;
40945;SDS011;55635;50.264;11.918;2024-03-22T06:39:23;30.15;;;16.42;;
40945;SDS011;55635;50.264;11.918;2024-03-22T06:42:04;33.97;;;16.45;;
40945;SDS011;55635;50.264;11.918;2024-03-22T06:44:45;37.53;;;17.73;;
40945;SDS011;55635;50.264;11.918;2024-03-22T06:47:26;34.42;;;17.27;;
40945;SDS011;55635;50.264;11.918;2024-03-22T06:50:07;44.65;;;18.42;;
40945;SDS011;55635;50.264;11.918;2024-03-22T06:52:48;37.03;;;18.27;;
40945;SDS011;55635;50.264;11.918;2024-03-22T06:55:30;36.90;;;17.67;;
40945;SDS011;55635;50.264;11.918;2024-03-22T06:58:11;42.08;;;20.08;;
40945;SDS011;55635;50.264;11.918;2024-03-22T07:00:52;42.55;;;21.65;;
40945;SDS011;55635;50.264;11.918;2024-03-22T07:03:33;41.20;;;20.63;;
40945;SDS011;55635;50.264;11.918;2024-03-22T07:06:15;37.13;;;18.73;;
40945;SDS011;55635;50.264;11.918;2024-03-22T07:08:57;41.60;;;19.23;;
40945;SDS011;55635;50.264;11.918;2024-03-22T07:11:38;42.05;;;20.67;;
40945;SDS011;55635;50.264;11.918;2024-03-22T07:14:20;47.15;;;20.85;;
40945;SDS011;55635;50.264;11.918;2024-03-22T07:17:00;44.30;;;19.98;;
40945;SDS011;55635;50.264;11.918;2024-03-22T07:19:42;39.85;;;20.13;;
40945;SDS011;55635;50.264;11.918;2024-03-22T07:22:23;43.70;;;20.90;;
40945;SDS011;55635;50.264;11.918;2024-03-22T07:25:04;44.25;;;19.42;;
40945;SDS011;55635;50.264;11.918;2024-03-22T07:27:45;40.28;;;19.48;;
40945;SDS011;55635;50.264;11.918;2024-03-22T07:30:27;37.92;;;19.42;;
40945;SDS011;55635;50.264;11.918;2024-03-22T07:33:10;37.03;;;19.02;;
40945;SDS011;55635;50.264;11.918;2024-03-22T07:35:53;35.03;;;18.67;;
40945;SDS011;55635;50.264;11.918;2024-03-22T07:38:34;32.08;;;17.75;;
40945;SDS011;55635;50.264;11.918;2024-03-22T07:41:15;34.67;;;17.75;;
40945;SDS011;55635;50.264;11.918;2024-03-22T07:43:56;31.35;;;17.83;;
40945;SDS011;55635;50.264;11.918;2024-03-22T07:46:37;32.35;;;17.85;;
40945;SDS011;55635;50.264;11.918;2024-03-22T07:49:18;31.40;;;17.95;;
40945;SDS011;55635;50.264;11.918;2024-03-22T07:51:59;31.55;;;18.17;;
40945;SDS011;55635;50.264;11.918;2024-03-22T07:54:40;31.05;;;17.77;;
40945;SDS011;55635;50.264;11.918;2024-03-22T07:57:21;31.02;;;17.08;;
40945;SDS011;55635;50.264;11.918;2024-03-22T08:00:03;29.33;;;17.13;;
40945;SDS011;55635;50.264;11.918;2024-03-22T08:02:52;29.90;;;17.70;;
40945;SDS011;55635;50.264;11.918;2024-03-22T08:05:33;30.50;;;17.08;;
40945;SDS011;55635;50.264;11.918;2024-03-22T08:08:14;29.63;;;17.80;;
40945;SDS011;55635;50.264;11.918;2024-03-22T08:10:55;29.92;;;17.67;;
40945;SDS011;55635;50.264;11.918;2024-03-22T08:13:35;31.35;;;17.63;;
40945;SDS011;55635;50.264;11.918;2024-03-22T08:16:17;25.52;;;16.40;;
40945;SDS011;55635;50.264;11.918;2024-03-22T08:18:58;27.10;;;16.13;;
40945;SDS011;55635;50.264;11.918;2024-03-22T08:21:39;29.73;;;16.50;;
40945;SDS011;55635;50.264;11.918;2024-03-22T08:24:20;27.35;;;15.77;;
40945;SDS011;55635;50.264;11.918;2024-03-22T08:27:01;30.08;;;16.58;;
40945;SDS011;55635;50.264;11.918;2024-03-22T08:29:42;22.52;;;15.10;;
40945;SDS011;55635;50.264;11.918;2024-03-22T08:32:23;24.92;;;14.18;;
40945;SDS011;55635;50.264;11.918;2024-03-22T08:35:04;23.10;;;14.18;;
40945;SDS011;55635;50.264;11.918;2024-03-22T08:37:46;26.98;;;16.23;;
40945;SDS011;55635;50.264;11.918;2024-03-22T08:40:26;27.00;;;15.88;;
40945;SDS011;55635;50.264;11.918;2024-03-22T08:43:07;29.25;;;16.75;;
40945;SDS011;55635;50.264;11.918;2024-03-22T08:45:48;26.40;;;16.08;;
40945;SDS011;55635;50.264;11.918;2024-03-22T08:48:30;30.67;;;17.73;;
40945;SDS011;55635;50.264;11.918;2024-03-22T08:51:10;37.38;;;19.63;;
40945;SDS011;55635;50.264;11.918;2024-03-22T08:53:52;33.53;;;19.08;;
40945;SDS011;55635;50.264;11.918;2024-03-22T08:56:33;32.50;;;18.35;;
40945;SDS011;55635;50.264;11.918;2024-03-22T08:59:13;33.38;;;18.17;;
40945;SDS011;55635;50.264;11.918;2024-03-22T09:01:54;32.00;;;16.90;;
40945;SDS011;55635;50.264;11.918;2024-03-22T09:04:36;34.35;;;18.02;;
40945;SDS011;55635;50.264;11.918;2024-03-22T09:07:17;32.75;;;17.98;;
40945;SDS011;55635;50.264;11.918;2024-03-22T09:09:58;33.95;;;19.08;;
40945;SDS011;55635;50.264;11.918;2024-03-22T09:12:39;34.33;;;18.30;;
40945;SDS011;55635;50.264;11.918;2024-03-22T09:15:20;30.35;;;18.33;;
40945;SDS011;55635;50.264;11.918;2024-03-22T09:18:01;32.88;;;19.48;;
40945;SDS011;55635;50.264;11.918;2024-03-22T09:20:43;33.33;;;19.40;;
40945;SDS011;55635;50.264;11.918;2024-03-22T09:23:24;35.22;;;17.83;;
40945;SDS011;55635;50.264;11.918;2024-03-22T09:26:05;35.75;;;19.55;;
40945;SDS011;55635;50.264;11.918;2024-03-22T09:28:46;35.03;;;18.63;;
40945;SDS011;55635;50.264;11.918;2024-03-22T09:31:27;36.47;;;17.52;;
40945;SDS011;55635;50.264;11.918;2024-03-22T09:34:08;32.95;;;17.80;;
40945;SDS011;55635;50.264;11.918;2024-03-22T09:36:49;36.13;;;18.45;;
40945;SDS011;55635;50.264;11.918;2024-03-22T09:39:30;29.65;;;16.58;;
40945;SDS011;55635;50.264;11.918;2024-03-22T09:42:16;29.92;;;16.50;;
40945;SDS011;55635;50.264;11.918;2024-03-22T09:45:00;30.60;;;16.98;;
40945;SDS011;55635;50.264;11.918;2024-03-22T09:47:42;32.53;;;16.63;;
40945;SDS011;55635;50.264;11.918;2024-03-22T09:50:25;34.15;;;16.85;;
40945;SDS011;55635;50.264;11.918;2024-03-22T09:53:06;30.63;;;16.67;;
40945;SDS011;55635;50.264;11.918;2024-03-22T09:55:51;29.98;;;15.93;;
40945;SDS011;55635;50.264;11.918;2024-03-22T09:58:37;31.65;;;16.70;;
40945;SDS011;55635;50.264;11.918;2024-03-22T10:01:19;32.20;;;16.25;;
40945;SDS011;55635;50.264;11.918;2024-03-22T10:04:00;28.25;;;16.15;;
40945;SDS011;55635;50.264;11.918;2024-03-22T10:06:41;28.58;;;16.20;;
40945;SDS011;55635;50.264;11.918;2024-03-22T10:09:28;28.50;;;16.45;;
40945;SDS011;55635;50.264;11.918;2024-03-22T10:12:10;31.60;;;17.75;;
40945;SDS011;55635;50.264;11.918;2024-03-22T10:14:54;29.90;;;16.02;;
40945;SDS011;55635;50.264;11.918;2024-03-22T10:17:36;29.65;;;16.55;;
40945;SDS011;55635;50.264;11.918;2024-03-22T10:20:17;28.98;;;16.35;;
40945;SDS011;55635;50.264;11.918;2024-03-22T10:22:58;26.23;;;15.80;;
40945;SDS011;55635;50.264;11.918;2024-03-22T10:25:40;26.15;;;16.02;;
40945;SDS011;55635;50.264;11.918;2024-03-22T10:28:21;25.33;;;14.50;;
40945;SDS011;55635;50.264;11.918;2024-03-22T10:31:02;24.50;;;14.25;;
40945;SDS011;55635;50.264;11.918;2024-03-22T10:33:44;27.33;;;14.40;;
40945;SDS011;55635;50.264;11.918;2024-03-22T10:36:26;28.35;;;15.57;;
40945;SDS011;55635;50.264;11.918;2024-03-22T10:39:07;30.17;;;16.27;;
40945;SDS011;55635;50.264;11.918;2024-03-22T10:41:51;25.25;;;14.73;;
40945;SDS011;55635;50.264;11.918;2024-03-22T10:44:33;25.25;;;14.05;;
40945;SDS011;55635;50.264;11.918;2024-03-22T10:47:15;28.58;;;14.27;;
40945;SDS011;55635;50.264;11.918;2024-03-22T10:50:08;24.70;;;14.13;;
40945;SDS011;55635;50.264;11.918;2024-03-22T10:52:52;24.05;;;13.73;;
40945;SDS011;55635;50.264;11.918;2024-03-22T10:55:41;27.73;;;14.85;;
40945;SDS011;55635;50.264;11.918;2024-03-22T10:58:25;22.95;;;13.63;;
40945;SDS011;55635;50.264;11.918;2024-03-22T11:01:06;22.70;;;13.52;;
40945;SDS011;55635;50.264;11.918;2024-03-22T11:04:04;26.52;;;14.65;;
40945;SDS011;55635;50.264;11.918;2024-03-22T11:06:51;24.00;;;13.73;;
40945;SDS011;55635;50.264;11.918;2024-03-22T11:09:32;26.48;;;13.90;;
40945;SDS011;55635;50.264;11.918;2024-03-22T11:12:13;24.23;;;14.32;;
40945;SDS011;55635;50.264;11.918;2024-03-22T11:14:54;21.23;;;13.30;;
40945;SDS011;55635;50.264;11.918;2024-03-22T11:17:36;26.00;;;13.88;;
40945;SDS011;55635;50.264;11.918;2024-03-22T11:20:17;26.95;;;13.60;;
40945;SDS011;55635;50.264;11.918;2024-03-22T11:22:59;24.48;;;12.80;;
40945;SDS011;55635;50.264;11.918;2024-03-22T11:25:40;26.33;;;14.55;;
40945;SDS011;55635;50.264;11.918;2024-03-22T11:28:21;21.55;;;12.90;;
40945;SDS011;55635;50.264;11.918;2024-03-22T11:31:02;23.05;;;13.52;;
40945;SDS011;55635;50.264;11.918;2024-03-22T11:33:43;21.17;;;12.23;;
40945;SDS011;55635;50.264;11.918;2024-03-22T11:36:24;22.17;;;11.80;;
40945;SDS011;55635;50.264;11.918;2024-03-22T11:39:05;21.70;;;12.63;;
40945;SDS011;55635;50.264;11.918;2024-03-22T11:41:47;20.58;;;12.48;;
40945;SDS011;55635;50.264;11.918;2024-03-22T11:44:30;21.92;;;11.65;;
40945;SDS011;55635;50.264;11.918;2024-03-22T11:47:14;20.08;;;11.80;;
40945;SDS011;55635;50.264;11.918;2024-03-22T11:49:55;18.55;;;11.88;;
40945;SDS011;55635;50.264;11.918;2024-03-22T11:52:36;19.25;;;11.63;;
40945;SDS011;55635;50.264;11.918;2024-03-22T11:55:17;16.35;;;11.02;;
40945;SDS011;55635;50.264;11.918;2024-03-22T11:57:58;22.10;;;12.82;;
40945;SDS011;55635;50.264;11.918;2024-03-22T12:00:41;19.45;;;11.30;;
40945;SDS011;55635;50.264;11.918;2024-03-22T12:03:22;18.35;;;11.85;;
40945;SDS011;55635;50.264;11.918;2024-03-22T12:06:04;19.70;;;11.45;;
40945;SDS011;55635;50.264;11.918;2024-03-22T12:08:48;17.27;;;10.60;;
40945;SDS011;55635;50.264;11.918;2024-03-22T12:11:29;19.90;;;11.50;;
40945;SDS011;55635;50.264;11.918;2024-03-22T12:14:10;15.73;;;10.30;;
40945;SDS011;55635;50.264;11.918;2024-03-22T12:16:52;18.67;;;10.90;;
40945;SDS011;55635;50.264;11.918;2024-03-22T12:19:33;21.38;;;12.35;;
40945;SDS011;55635;50.264;11.918;2024-03-22T12:22:14;21.60;;;12.10;;
40945;SDS011;55635;50.264;11.918;2024-03-22T12:24:55;15.85;;;11.70;;
40945;SDS011;55635;50.264;11.918;2024-03-22T12:27:36;17.40;;;12.13;;
40945;SDS011;55635;50.264;11.918;2024-03-22T12:30:17;20.02;;;12.60;;
40945;SDS011;55635;50.264;11.918;2024-03-22T12:32:58;18.52;;;12.75;;
40945;SDS011;55635;50.264;11.918;2024-03-22T12:35:39;20.50;;;11.98;;
40945;SDS011;55635;50.264;11.918;2024-03-22T12:38:21;16.90;;;12.30;;
40945;SDS011;55635;50.264;11.918;2024-03-22T12:41:02;17.88;;;12.40;;
40945;SDS011;55635;50.264;11.918;2024-03-22T12:43:43;16.45;;;10.68;;
40945;SDS011;55635;50.264;11.918;2024-03-22T12:46:25;16.48;;;12.00;;
40945;SDS011;55635;50.264;11.918;2024-03-22T12:49:07;17.20;;;10.75;;
40945;SDS011;55635;50.264;11.918;2024-03-22T12:51:49;13.63;;;10.30;;
40945;SDS011;55635;50.264;11.918;2024-03-22T12:54:30;14.25;;;10.63;;
40945;SDS011;55635;50.264;11.918;2024-03-22T12:57:11;14.15;;;10.48;;
40945;SDS011;55635;50.264;11.918;2024-03-22T12:59:52;14.77;;;9.38;;
40945;SDS011;55635;50.264;11.918;2024-03-22T13:02:33;16.00;;;10.05;;
40945;SDS011;55635;50.264;11.918;2024-03-22T13:05:14;13.27;;;9.57;;
40945;SDS011;55635;50.264;11.918;2024-03-22T13:07:55;11.80;;;9.13;;
40945;SDS011;55635;50.264;11.918;2024-03-22T13:10:36;12.73;;;9.90;;
40945;SDS011;55635;50.264;11.918;2024-03-22T13:13:17;10.90;;;8.80;;
40945;SDS011;55635;50.264;11.918;2024-03-22T13:15:58;18.35;;;10.18;;
40945;SDS011;55635;50.264;11.918;2024-03-22T13:18:42;12.50;;;9.45;;
40945;SDS011;55635;50.264;11.918;2024-03-22T13:21:23;13.43;;;9.00;;
40945;SDS011;55635;50.264;11.918;2024-03-22T13:24:04;17.00;;;8.57;;
40945;SDS011;55635;50.264;11.918;2024-03-22T13:26:45;13.35;;;8.05;;
40945;SDS011;55635;50.264;11.918;2024-03-22T13:29:26;11.25;;;7.43;;
40945;SDS011;55635;50.264;11.918;2024-03-22T13:32:07;11.93;;;8.32;;
40945;SDS011;55635;50.264;11.918;2024-03-22T13:34:48;12.27;;;7.40;;
40945;SDS011;55635;50.264;11.918;2024-03-22T13:37:30;13.77;;;8.85;;
40945;SDS011;55635;50.264;11.918;2024-03-22T13:40:11;12.32;;;8.18;;
40945;SDS011;55635;50.264;11.918;2024-03-22T13:42:53;11.38;;;8.52;;
40945;SDS011;55635;50.264;11.918;2024-03-22T13:45:39;10.55;;;7.72;;
40945;SDS011;55635;50.264;11.918;2024-03-22T13:48:23;12.15;;;7.75;;
40945;SDS011;55635;50.264;11.918;2024-03-22T13:51:05;12.02;;;8.70;;
40945;SDS011;55635;50.264;11.918;2024-03-22T13:53:46;13.60;;;8.40;;
40945;SDS011;55635;50.264;11.918;2024-03-22T13:56:27;12.98;;;9.10;;
40945;SDS011;55635;50.264;11.918;2024-03-22T13:59:08;13.80;;;8.70;;
40945;SDS011;55635;50.264;11.918;2024-03-22T14:01:50;15.68;;;8.70;;
40945;SDS011;55635;50.264;11.918;2024-03-22T14:04:31;16.42;;;9.30;;
40945;SDS011;55635;50.264;11.918;2024-03-22T14:07:12;13.43;;;9.65;;
40945;SDS011;55635;50.264;11.918;2024-03-22T14:09:53;15.35;;;10.85;;
40945;SDS011;55635;50.264;11.918;2024-03-22T14:12:34;14.27;;;9.63;;
40945;SDS011;55635;50.264;11.918;2024-03-22T14:15:15;12.88;;;9.57;;
40945;SDS011;55635;50.264;11.918;2024-03-22T14:17:56;16.10;;;10.48;;
40945;SDS011;55635;50.264;11.918;2024-03-22T14:20:38;15.60;;;9.98;;
40945;SDS011;55635;50.264;11.918;2024-03-22T14:23:19;11.60;;;9.30;;
40945;SDS011;55635;50.264;11.918;2024-03-22T14:26:00;15.98;;;10.00;;
40945;SDS011;55635;50.264;11.918;2024-03-22T14:28:41;14.60;;;9.65;;
40945;SDS011;55635;50.264;11.918;2024-03-22T14:31:22;14.60;;;9.55;;
40945;SDS011;55635;50.264;11.918;2024-03-22T14:34:05;14.00;;;9.40;;
40945;SDS011;55635;50.264;11.918;2024-03-22T14:36:47;14.80;;;8.73;;
40945;SDS011;55635;50.264;11.918;2024-03-22T14:39:28;11.52;;;8.70;;
40945;SDS011;55635;50.264;11.918;2024-03-22T14:42:09;11.50;;;8.50;;
40945;SDS011;55635;50.264;11.918;2024-03-22T14:44:50;14.75;;;7.43;;
40945;SDS011;55635;50.264;11.918;2024-03-22T14:47:31;12.70;;;7.68;;
40945;SDS011;55635;50.264;11.918;2024-03-22T14:50:13;9.63;;;6.78;;
40945;SDS011;55635;50.264;11.918;2024-03-22T14:52:54;10.27;;;7.45;;
40945;SDS011;55635;50.264;11.918;2024-03-22T14:55:35;10.60;;;7.18;;
40945;SDS011;55635;50.264;11.918;2024-03-22T14:58:16;10.75;;;7.60;;
40945;SDS011;55635;50.264;11.918;2024-03-22T15:00:58;12.65;;;8.38;;
40945;SDS011;55635;50.264;11.918;2024-03-22T15:03:41;11.90;;;7.80;;
40945;SDS011;55635;50.264;11.918;2024-03-22T15:06:23;13.68;;;8.25;;
40945;SDS011;55635;50.264;11.918;2024-03-22T15:09:04;13.82;;;9.18;;
40945;SDS011;55635;50.264;11.918;2024-03-22T15:11:51;12.50;;;8.52;;
40945;SDS011;55635;50.264;11.918;2024-03-22T15:14:32;14.52;;;8.68;;
40945;SDS011;55635;50.264;11.918;2024-03-22T15:17:13;11.32;;;8.10;;
40945;SDS011;55635;50.264;11.918;2024-03-22T15:19:56;10.73;;;7.93;;
40945;SDS011;55635;50.264;11.918;2024-03-22T15:22:37;11.45;;;7.93;;
40945;SDS011;55635;50.264;11.918;2024-03-22T15:25:18;12.35;;;8.15;;
40945;SDS011;55635;50.264;11.918;2024-03-22T15:27:59;11.65;;;7.60;;
40945;SDS011;55635;50.264;11.918;2024-03-22T15:30:40;13.35;;;7.93;;
40945;SDS011;55635;50.264;11.918;2024-03-22T15:33:22;9.65;;;7.25;;
40945;SDS011;55635;50.264;11.918;2024-03-22T15:36:03;9.95;;;7.35;;